Terminal Aerodrome Forecast
Issued by NWS

Home | Current Version | Previous Version | Text Only | Print | Product List | Glossary On
Versions: 1 2 3 4 5 6 7 8 9 10 11 12 13 14 15 16 17 18 19 20 21 22 23 24 25 26 27 28 29 30
182
FTUS43 KIND 020053 AAC
TAFLAF
TAF AMD
KLAF 020053Z 0201/0224 02006KT P6SM VCTS OVC011CB
     FM020400 33008KT P6SM OVC015
     FM020900 01009KT 3SM BR OVC007
     FM021500 03007KT P6SM VCSH OVC012=

USA.gov is the U.S. government's official web portal to all federal, state and local government web resources and services.